HALF-HOURLY OBSERVATIONS INDEX

035

Central Highlands

BLACKWATER AIRPORT

Site: 035134
Alt: 193.0m
km of


  Time     Wind        Temp  DP   Baro     Rain since   Rain past  Vis(m), Cloud(base in m), Weather
  local        km/h                         9am  last   hr   10m    
Mon 10:00  ENE 15/ 20  30.2 24.1  1014.5    0.0   0.0   0.0   0.0   ----- 
Mon 10:30   NE  9/ 17  30.3 23.5  1014.4    0.0   0.0   0.0   0.0   ----- 
Mon 11:00    E  7/ 11  30.0 22.9  1014.1    0.0   0.0   0.0   0.0   ----- 
Mon 11:30  ESE  9/ 15  30.8 23.7  1013.4    0.0   0.0   0.0   0.0   ----- 
Mon 12:00   SE 11/ 17  30.4 22.3  1013.0    0.0   0.0   0.0   0.0   ----- 
Mon 12:30   SE 11/ 17  31.1 22.7  1012.6    0.0   0.0   0.0   0.0   ----- 
Mon 13:00    E 13/ 20  32.1 22.5  1012.1    0.0   0.0   0.0   0.0   ----- 
Mon 13:30  ESE 15/ 24  32.3 22.1  1011.7    0.0   0.0   0.0   0.0   ----- 
Mon 14:00  ESE 11/ 20  32.8 22.3  1011.2    0.0   0.0   0.0   0.0   ----- 
Mon 14:30   NE 13/ 20  33.4 22.2  1010.8    0.0   0.0   0.0   0.0   ----- 
Mon 15:00    N  6/  9  33.7 21.8  1010.4    0.0   0.0   0.0   0.0   ----- 
Mon 15:30   NE  9/ 13  33.2 21.0  1010.2    0.0   0.0   0.0   0.0   ----- 

CLERMONT AIRPORT

Site: 035124
Alt: 270.3m
98km NNW of EMERALD


  Time     Wind        Temp  DP   Baro     Rain since   Rain past  Vis(m), Cloud(base in m), Weather
  local        km/h                         9am  last   hr   10m    
Mon 10:00  ESE 13/ 26  28.9 21.9  1014.5    0.0   0.0   0.0   0.0   10000|BR 900 
Mon 10:30  ESE 13/ 26  30.4 22.6  1014.2    0.0   0.0   0.0   0.0   10000|BR1020 BR1530 
Mon 11:00   SE 11/ 19  30.5 22.4  1013.8    0.0   0.0   0.0   0.0   10000|SC1140 OC1560 
Mon 11:30  ESE 13/ 20  30.2 21.8  1013.6    0.0   0.0   0.0   0.0   10000|BR1200 BR1470 OC1620 
Mon 12:00  ESE  9/ 17  30.9 21.7  1013.1    0.0   0.0   0.0   0.0   10000|BR1200 OC1680 
Mon 12:30  ESE 13/ 22  31.2 21.9  1012.6    0.0   0.0   0.0   0.0   10000|SC1380 OC1650 
Mon 13:00  SSE 15/ 20  31.1 21.6  1012.3    0.0   0.0   0.0   0.0   10000|SC1320 OC1650 
Mon 13:30   SE 13/ 19  31.4 21.3  1011.9    0.0   0.0   0.0   0.0   10000|OC1560 
Mon 14:00   SE  9/ 15  31.8 21.6  1011.5    0.0   0.0   0.0   0.0   10000|OC1740 
Mon 14:30  SSE 13/ 20  31.9 21.4  1011.1    0.0   0.0   0.0   0.0   10000|SC1440 OC1800 
Mon 15:00  SSE 11/ 20  31.8 21.6  1010.8    0.0   0.0   0.0   0.0   10000|OC1740 
Mon 15:30   SE  9/ 17  32.3 21.5  1010.4    0.0   0.0   0.0   0.0   10000|OC1860 

EMERALD AIRPORT

Site: 035264
Alt: 189.4m
7km SSE of EMERALD


  Time     Wind        Temp  DP   Baro     Rain since   Rain past  Vis(m), Cloud(base in m), Weather
  local        km/h                         9am  last   hr   10m    
Mon 10:00   SE 15/ 19  29.7 24.1  1014.5    0.0   0.0   0.0   0.0   10000|SC 690 SC 840 SC1080 
Mon 10:30   SE 13/ 19  29.4 22.9  1014.3    0.0   0.0   0.0   0.0   10000|BR 750 BR 930 BR1110 
Mon 11:00  ESE 15/ 22  29.9 23.6  1013.9    0.0   0.0   0.0   0.0   10000|SC 810 SC1170 BR1410 
Mon 11:30    E 13/ 22  31.1 22.7  1013.3    0.0   0.0   0.0   0.0   10000|SC 990 SC1410 
Mon 12:00   SE 13/ 22  31.6 22.3  1013.0    0.0   0.0   0.0   0.0   10000|SC1110 SC1470 
Mon 12:30   SE 11/ 22  31.3 22.3  1012.5    0.0   0.0   0.0   0.0   10000|SC1110 BR1650 
Mon 13:00    E 13/ 20  32.0 22.4  1011.9    0.0   0.0   0.0   0.0   10000|SC1260 SC1500 SC1650 
Mon 13:30    E 13/ 17  32.4 22.5  1011.5    0.0   0.0   0.0   0.0   10000|SC1260 BR1650 
Mon 14:00  ESE 11/ 17  32.5 21.4  1011.1    0.0   0.0   0.0   0.0   10000|SC1380 
Mon 14:30  ESE  9/ 17  32.7 22.2  1010.6    0.0   0.0   0.0   0.0   10000|SC1440 BR1770 
Mon 15:00   SE 13/ 22  32.7 21.9  1010.3    0.0   0.0   0.0   0.0   10000|SC1470 
Mon 15:30  ESE 13/ 20  33.7 21.5  1010.1    0.0   0.0   0.0   0.0   10000|SC2070 

LOCHINGTON

Site: 035139
Alt: 267.2m
80km SW of EMERALD


  Time     Wind        Temp  DP   Baro     Rain since   Rain past  Vis(m), Cloud(base in m), Weather
  local        km/h                         9am  last   hr   10m    
Mon 10:00    E  6/ 11  29.0 21.5  1014.6    0.0   0.0   0.0   0.0   ----- 
Mon 10:30  ENE  4/ 13  29.8 20.9  1014.4    0.0   0.0   0.0   0.0   ----- 
Mon 11:00   SE  9/ 15  29.3 21.0  1014.2    0.0   0.0   0.0   0.0   ----- 
Mon 11:30    E  6/ 11  29.8 20.9  1013.9    0.0   0.0   0.0   0.0   ----- 
Mon 12:00  ENE  7/ 15  30.7 20.6  1013.6    0.0   0.0   0.0   0.0   ----- 
Mon 12:30  ENE  6/ 15  31.4 21.0  1013.1    0.0   0.0   0.0   0.0   ----- 
Mon 13:00    E  7/ 19  31.7 20.3  1012.6    0.0   0.0   0.0   0.0   ----- 
Mon 13:30    E 11/ 20  32.5 20.4  1011.9    0.0   0.0   0.0   0.0   ----- 
Mon 14:00    E  9/ 17  33.0 20.9  1011.5    0.0   0.0   0.0   0.0   ----- 
Mon 14:30    E  9/ 15  32.6 19.1  1011.0    0.0   0.0   0.0   0.0   ----- 
Mon 15:00    E 11/ 19  33.9 19.2  1010.7    0.0   0.0   0.0   0.0   ----- 
Mon 15:30   SE  7/ 15  33.7 20.1  1010.6    0.0   0.0   0.0   0.0   ----- 

ROLLESTON AIRPORT

Site: 035129
Alt: 219.5m
101km SSW of BLACKWATER


  Time     Wind        Temp  DP   Baro     Rain since   Rain past  Vis(m), Cloud(base in m), Weather
  local        km/h                         9am  last   hr   10m    
Mon 10:00    S  7/ 13  28.6 22.3  1015.0    0.0   0.0   0.0   0.0   ----- 
Mon 10:30  SSE  7/ 13  29.1 22.1  1014.6    0.0   0.0   0.0   0.0   ----- 
Mon 11:00  SSE  7/ 11  29.3 21.5  1014.5    0.0   0.0   0.0   0.0   ----- 
Mon 11:30  SSE  7/ 13  29.9 21.0  1014.2    0.0   0.0   0.0   0.0   ----- 
Mon 12:00  SSE  9/ 17  30.7 21.5  1013.7    0.0   0.0   0.0   0.0   ----- 
Mon 12:30    S  7/ 13  31.2 21.1  1013.4    0.0   0.0   0.0   0.0   ----- 
Mon 13:00  SSE  6/ 13  31.7 20.6  1013.0    0.0   0.0   0.0   0.0   ----- 
Mon 13:30    S 13/ 20  31.9 20.5  1012.4    0.0   0.0   0.0   0.0   ----- 
Mon 14:00  SSE 11/ 20  32.3 20.5  1011.9    0.0   0.0   0.0   0.0   ----- 
Mon 14:30  SSE 15/ 24  32.5 20.1  1011.4    0.0   0.0   0.0   0.0   ----- 
Mon 15:00  SSE 13/ 22  32.8 20.0  1011.0    0.0   0.0   0.0   0.0   ----- 
Mon 15:30   SE 15/ 24  33.3 20.1  1010.9    0.0   0.0   0.0   0.0   -----